sensor_id;sensor_type;location;lat;lon;timestamp;pressure;altitude;pressure_sealevel;temperature;humidity
70458;BME280;57919;56.194;95.716;2023-03-23T00:01:53;100581.81;;;-16.43;60.97
70458;BME280;57919;56.194;95.716;2023-03-23T00:11:56;100576.56;;;-16.01;60.39
70458;BME280;57919;56.194;95.716;2023-03-23T00:22:06;100585.81;;;-15.63;59.23
70458;BME280;57919;56.194;95.716;2023-03-23T00:32:08;100576.66;;;-15.29;59.42
70458;BME280;57919;56.194;95.716;2023-03-23T00:42:15;100567.50;;;-14.71;58.81
70458;BME280;57919;56.194;95.716;2023-03-23T00:52:18;100567.44;;;-14.47;59.19
70458;BME280;57919;56.194;95.716;2023-03-23T01:02:20;100554.59;;;-13.87;58.07
70458;BME280;57919;56.194;95.716;2023-03-23T01:12:26;100546.75;;;-12.97;56.97
70458;BME280;57919;56.194;95.716;2023-03-23T01:22:28;100537.84;;;-12.39;54.24
70458;BME280;57919;56.194;95.716;2023-03-23T01:32:30;100531.75;;;-11.22;53.21
70458;BME280;57919;56.194;95.716;2023-03-23T01:42:34;100527.38;;;-9.68;50.90
70458;BME280;57919;56.194;95.716;2023-03-23T01:52:40;100510.00;;;-8.90;46.72
70458;BME280;57919;56.194;95.716;2023-03-23T02:02:44;100510.72;;;-8.06;45.75
70458;BME280;57919;56.194;95.716;2023-03-23T02:12:50;100492.81;;;-7.20;44.03
70458;BME280;57919;56.194;95.716;2023-03-23T02:33:14;100468.97;;;-5.12;41.32
70458;BME280;57919;56.194;95.716;2023-03-23T02:43:22;100445.41;;;-3.32;39.67
70458;BME280;57919;56.194;95.716;2023-03-23T02:53:28;100440.16;;;-3.33;38.88
70458;BME280;57919;56.194;95.716;2023-03-23T03:03:32;100430.19;;;-2.53;37.58
70458;BME280;57919;56.194;95.716;2023-03-23T03:13:47;100417.09;;;-1.19;35.90
70458;BME280;57919;56.194;95.716;2023-03-23T03:23:55;100405.56;;;-1.18;35.46
70458;BME280;57919;56.194;95.716;2023-03-23T03:34:01;100407.22;;;-1.12;34.85
70458;BME280;57919;56.194;95.716;2023-03-23T03:44:05;100395.75;;;-0.39;30.91
70458;BME280;57919;56.194;95.716;2023-03-23T03:54:08;100369.81;;;-0.29;30.24
70458;BME280;57919;56.194;95.716;2023-03-23T04:04:10;100351.31;;;0.92;31.28
70458;BME280;57919;56.194;95.716;2023-03-23T04:14:12;100334.75;;;2.14;30.92
70458;BME280;57919;56.194;95.716;2023-03-23T04:24:18;100330.97;;;2.68;30.28
70458;BME280;57919;56.194;95.716;2023-03-23T04:34:23;100315.25;;;1.36;29.58
70458;BME280;57919;56.194;95.716;2023-03-23T04:44:28;100311.81;;;2.34;28.54
70458;BME280;57919;56.194;95.716;2023-03-23T04:54:38;100300.81;;;2.18;28.41
70458;BME280;57919;56.194;95.716;2023-03-23T05:04:40;100284.66;;;1.98;27.08
70458;BME280;57919;56.194;95.716;2023-03-23T05:14:47;100276.50;;;2.49;28.07
70458;BME280;57919;56.194;95.716;2023-03-23T05:24:53;100255.00;;;3.19;27.88
70458;BME280;57919;56.194;95.716;2023-03-23T05:34:56;100235.56;;;3.97;27.12
70458;BME280;57919;56.194;95.716;2023-03-23T05:45:00;100233.56;;;4.02;26.78
70458;BME280;57919;56.194;95.716;2023-03-23T05:55:04;100219.22;;;2.79;25.36
70458;BME280;57919;56.194;95.716;2023-03-23T06:05:08;100212.53;;;1.76;26.63
70458;BME280;57919;56.194;95.716;2023-03-23T06:15:14;100191.94;;;2.93;26.54
70458;BME280;57919;56.194;95.716;2023-03-23T06:25:35;100182.97;;;3.56;25.98
70458;BME280;57919;56.194;95.716;2023-03-23T06:35:38;100163.84;;;3.84;25.78
70458;BME280;57919;56.194;95.716;2023-03-23T06:45:49;100155.06;;;3.62;26.12
70458;BME280;57919;56.194;95.716;2023-03-23T06:56:00;100142.97;;;3.53;26.42
70458;BME280;57919;56.194;95.716;2023-03-23T07:06:04;100127.44;;;3.62;26.23
70458;BME280;57919;56.194;95.716;2023-03-23T07:16:12;100121.97;;;3.44;26.60
70458;BME280;57919;56.194;95.716;2023-03-23T07:26:14;100103.47;;;2.79;26.25
70458;BME280;57919;56.194;95.716;2023-03-23T07:36:25;100091.97;;;2.77;26.11
70458;BME280;57919;56.194;95.716;2023-03-23T07:46:28;100076.66;;;2.60;26.61
70458;BME280;57919;56.194;95.716;2023-03-23T07:56:37;100067.56;;;2.64;26.58
70458;BME280;57919;56.194;95.716;2023-03-23T08:06:50;100045.63;;;2.78;26.78
70458;BME280;57919;56.194;95.716;2023-03-23T08:17:15;100026.09;;;2.96;26.62
70458;BME280;57919;56.194;95.716;2023-03-23T08:27:48;100012.72;;;3.16;26.63
70458;BME280;57919;56.194;95.716;2023-03-23T08:38:04;100009.13;;;3.36;26.32
70458;BME280;57919;56.194;95.716;2023-03-23T08:48:37;99991.34;;;3.35;26.76
70458;BME280;57919;56.194;95.716;2023-03-23T08:59:12;99966.88;;;2.86;26.10
70458;BME280;57919;56.194;95.716;2023-03-23T09:09:30;99962.53;;;2.43;23.91
70458;BME280;57919;56.194;95.716;2023-03-23T09:19:33;99944.91;;;2.39;25.40
70458;BME280;57919;56.194;95.716;2023-03-23T09:29:35;99935.50;;;2.51;25.66
70458;BME280;57919;56.194;95.716;2023-03-23T09:39:37;99922.81;;;2.36;26.09
70458;BME280;57919;56.194;95.716;2023-03-23T09:49:58;99906.34;;;2.26;26.49
70458;BME280;57919;56.194;95.716;2023-03-23T10:10:16;99882.63;;;1.56;26.61
70458;BME280;57919;56.194;95.716;2023-03-23T10:20:32;99872.22;;;1.28;27.18
70458;BME280;57919;56.194;95.716;2023-03-23T10:30:42;99862.28;;;1.10;27.09
70458;BME280;57919;56.194;95.716;2023-03-23T10:40:49;99858.50;;;0.93;27.48
70458;BME280;57919;56.194;95.716;2023-03-23T10:50:55;99836.84;;;0.79;27.54
70458;BME280;57919;56.194;95.716;2023-03-23T11:01:02;99833.03;;;0.63;26.76
70458;BME280;57919;56.194;95.716;2023-03-23T11:11:31;99814.28;;;0.43;27.14
70458;BME280;57919;56.194;95.716;2023-03-23T11:21:35;99813.06;;;0.28;27.64
70458;BME280;57919;56.194;95.716;2023-03-23T11:31:49;99804.06;;;0.07;28.58
70458;BME280;57919;56.194;95.716;2023-03-23T11:41:57;99796.22;;;-0.21;28.56
70458;BME280;57919;56.194;95.716;2023-03-23T11:52:11;99781.53;;;-0.57;29.30
70458;BME280;57919;56.194;95.716;2023-03-23T12:43:33;99766.78;;;-2.72;32.77
70458;BME280;57919;56.194;95.716;2023-03-23T12:54:05;99743.09;;;-3.12;33.71
70458;BME280;57919;56.194;95.716;2023-03-23T13:04:20;99736.25;;;-3.21;36.24
70458;BME280;57919;56.194;95.716;2023-03-23T13:14:57;99726.41;;;-3.51;35.75
70458;BME280;57919;56.194;95.716;2023-03-23T13:25:08;99719.38;;;-3.91;37.93
70458;BME280;57919;56.194;95.716;2023-03-23T13:35:16;99705.81;;;-4.16;37.85
70458;BME280;57919;56.194;95.716;2023-03-23T14:05:49;99677.44;;;-4.94;39.85
70458;BME280;57919;56.194;95.716;2023-03-23T14:15:59;99660.25;;;-5.15;41.33
70458;BME280;57919;56.194;95.716;2023-03-23T14:26:08;99648.94;;;-5.22;41.97
70458;BME280;57919;56.194;95.716;2023-03-23T14:36:11;99640.25;;;-5.28;42.38
70458;BME280;57919;56.194;95.716;2023-03-23T14:46:13;99623.06;;;-5.49;42.61
70458;BME280;57919;56.194;95.716;2023-03-23T14:56:19;99610.00;;;-5.55;42.43
70458;BME280;57919;56.194;95.716;2023-03-23T15:06:26;99596.22;;;-5.72;42.76
70458;BME280;57919;56.194;95.716;2023-03-23T15:16:32;99585.03;;;-5.87;42.99
70458;BME280;57919;56.194;95.716;2023-03-23T15:26:43;99598.44;;;-5.99;43.13
70458;BME280;57919;56.194;95.716;2023-03-23T15:36:45;99592.50;;;-6.11;43.56
70458;BME280;57919;56.194;95.716;2023-03-23T15:46:50;99580.94;;;-6.01;43.16
70458;BME280;57919;56.194;95.716;2023-03-23T15:56:53;99564.78;;;-5.81;40.64
70458;BME280;57919;56.194;95.716;2023-03-23T16:06:56;99563.53;;;-5.61;40.34
70458;BME280;57919;56.194;95.716;2023-03-23T16:16:59;99552.22;;;-5.67;40.44
70458;BME280;57919;56.194;95.716;2023-03-23T16:27:01;99554.31;;;-5.86;40.67
70458;BME280;57919;56.194;95.716;2023-03-23T16:37:03;99544.22;;;-6.10;41.55
70458;BME280;57919;56.194;95.716;2023-03-23T16:47:07;99531.47;;;-6.38;41.49
70458;BME280;57919;56.194;95.716;2023-03-23T16:57:09;99528.41;;;-6.67;42.25
70458;BME280;57919;56.194;95.716;2023-03-23T17:07:12;99521.75;;;-6.94;43.20
70458;BME280;57919;56.194;95.716;2023-03-23T17:17:14;99513.41;;;-7.27;43.59
70458;BME280;57919;56.194;95.716;2023-03-23T17:27:19;99502.09;;;-7.32;43.66
70458;BME280;57919;56.194;95.716;2023-03-23T17:37:21;99515.16;;;-7.26;43.13
70458;BME280;57919;56.194;95.716;2023-03-23T17:47:23;99512.44;;;-7.18;42.96
70458;BME280;57919;56.194;95.716;2023-03-23T17:57:25;99504.00;;;-7.46;43.16
70458;BME280;57919;56.194;95.716;2023-03-23T18:07:27;99492.84;;;-7.66;43.83
70458;BME280;57919;56.194;95.716;2023-03-23T18:17:29;99490.34;;;-7.78;43.99
70458;BME280;57919;56.194;95.716;2023-03-23T18:27:32;99486.88;;;-7.82;44.63
70458;BME280;57919;56.194;95.716;2023-03-23T18:37:34;99478.16;;;-7.83;43.73
70458;BME280;57919;56.194;95.716;2023-03-23T18:47:37;99473.59;;;-7.67;43.32
70458;BME280;57919;56.194;95.716;2023-03-23T18:57:39;99454.94;;;-7.42;41.79
70458;BME280;57919;56.194;95.716;2023-03-23T19:07:41;99455.47;;;-7.16;41.30
70458;BME280;57919;56.194;95.716;2023-03-23T19:17:44;99447.78;;;-7.31;42.22
70458;BME280;57919;56.194;95.716;2023-03-23T19:27:46;99434.94;;;-7.56;42.59
70458;BME280;57919;56.194;95.716;2023-03-23T19:37:48;99423.00;;;-7.83;43.71
70458;BME280;57919;56.194;95.716;2023-03-23T19:47:50;99421.59;;;-8.12;44.68
70458;BME280;57919;56.194;95.716;2023-03-23T19:57:52;99423.41;;;-8.21;43.95
70458;BME280;57919;56.194;95.716;2023-03-23T20:07:54;99403.28;;;-8.20;43.85
70458;BME280;57919;56.194;95.716;2023-03-23T20:17:56;99408.78;;;-8.41;44.51
70458;BME280;57919;56.194;95.716;2023-03-23T20:27:59;99384.44;;;-8.57;44.77
70458;BME280;57919;56.194;95.716;2023-03-23T20:38:00;99383.75;;;-8.77;45.43
70458;BME280;57919;56.194;95.716;2023-03-23T20:48:02;99383.84;;;-8.88;44.96
70458;BME280;57919;56.194;95.716;2023-03-23T20:58:06;99378.66;;;-8.94;45.08
70458;BME280;57919;56.194;95.716;2023-03-23T21:08:09;99378.72;;;-9.05;44.72
70458;BME280;57919;56.194;95.716;2023-03-23T21:18:14;99381.47;;;-9.23;45.22
70458;BME280;57919;56.194;95.716;2023-03-23T21:28:16;99378.03;;;-9.33;45.17
70458;BME280;57919;56.194;95.716;2023-03-23T21:38:19;99382.50;;;-9.50;45.91
70458;BME280;57919;56.194;95.716;2023-03-23T21:48:27;99384.28;;;-9.57;45.87
70458;BME280;57919;56.194;95.716;2023-03-23T21:58:29;99394.00;;;-9.79;46.18
70458;BME280;57919;56.194;95.716;2023-03-23T22:08:31;99402.75;;;-9.90;46.23
70458;BME280;57919;56.194;95.716;2023-03-23T22:18:34;99397.56;;;-10.07;46.45
70458;BME280;57919;56.194;95.716;2023-03-23T22:28:36;99401.16;;;-10.37;46.57
70458;BME280;57919;56.194;95.716;2023-03-23T22:38:40;99402.94;;;-10.66;46.89
70458;BME280;57919;56.194;95.716;2023-03-23T22:48:43;99394.25;;;-10.97;47.00
70458;BME280;57919;56.194;95.716;2023-03-23T22:58:45;99385.53;;;-11.21;47.86
70458;BME280;57919;56.194;95.716;2023-03-23T23:08:47;99393.34;;;-11.25;48.89
70458;BME280;57919;56.194;95.716;2023-03-23T23:18:49;99395.06;;;-11.43;48.53
70458;BME280;57919;56.194;95.716;2023-03-23T23:28:52;99402.88;;;-11.41;48.27
70458;BME280;57919;56.194;95.716;2023-03-23T23:38:55;99406.34;;;-11.47;48.39
70458;BME280;57919;56.194;95.716;2023-03-23T23:48:58;99412.44;;;-11.45;48.92
70458;BME280;57919;56.194;95.716;2023-03-23T23:59:00;99403.81;;;-11.13;48.30
